Thetford Hill, Vermont
Current Conditions -  °F | °C
As of 2:53 PM on Friday 28 Nov 2014 (Local Time) from KLEB Reporting Station
Broken Clouds Broken Clouds  
Wind Chill: 22°   Ceiling: 6000
Heat Index: 29°   Visibility: 8mi
Dew Point: 17°   Wind: 7mph
Humidity: 61%   Direction: 310°NW
Pressure: 30.07"   Gusts: NA
Location:  43.8199°N, 72.2264°W
Report Text: KLEB 281953Z 31006KT 8SM SCT032 BKN060 M02/M08 A3007 RMK AO2 SLP192 T10171083
Loading
Personal Weather Stations






























Interactive Weather Map New forecast layout! Learn more

10-Day Weather Forecast

Advertisements
Track Severe Weather on mobile